createdAt,value
2023-10-10T00:02:21.471Z,100194.19
2023-10-10T00:04:55.877Z,100190.63
2023-10-10T00:07:28.202Z,100207.19
2023-10-10T00:09:57.477Z,100211.44
2023-10-10T00:12:31.114Z,100222.81
2023-10-10T00:15:00.234Z,100232.78
2023-10-10T00:17:36.202Z,100233.03
2023-10-10T00:20:26.118Z,100231.16
2023-10-10T00:23:00.089Z,100234.38
2023-10-10T00:25:32.463Z,100233.56
2023-10-10T00:28:05.920Z,100235.59
2023-10-10T00:30:44.430Z,100246.00
2023-10-10T00:33:17.332Z,100256.03
2023-10-10T00:35:46.382Z,100251.97
2023-10-10T00:38:25.856Z,100252.38
2023-10-10T00:40:58.450Z,100250.34
2023-10-10T00:43:27.034Z,100254.75
2023-10-10T00:45:58.057Z,100256.72
2023-10-10T00:48:30.902Z,100263.69
2023-10-10T00:51:20.917Z,100259.94
2023-10-10T00:54:09.829Z,100269.19
2023-10-10T00:56:44.917Z,100267.84
2023-10-10T00:59:13.301Z,100249.59
2023-10-10T01:01:41.991Z,100260.87
2023-10-10T01:04:12.938Z,100266.84
2023-10-10T01:06:42.021Z,100261.25
2023-10-10T01:09:30.541Z,100270.06
2023-10-10T01:12:00.209Z,100278.81
2023-10-10T01:14:28.614Z,100273.88
2023-10-10T01:16:59.248Z,100278.63
2023-10-10T01:19:31.911Z,100274.44
2023-10-10T01:22:00.971Z,100282.06
2023-10-10T01:24:31.503Z,100278.38
2023-10-10T01:27:17.323Z,100262.59
2023-10-10T01:29:51.672Z,100265.62
2023-10-10T01:32:21.691Z,100262.09
2023-10-10T01:34:50.427Z,100264.56
2023-10-10T01:37:18.641Z,100268.50
2023-10-10T01:40:15.766Z,100257.81
2023-10-10T01:42:55.085Z,100229.75
2023-10-10T01:45:28.625Z,100224.63
2023-10-10T01:48:03.995Z,100225.25
2023-10-10T01:50:32.356Z,100244.44
2023-10-10T01:53:01.796Z,100240.31
2023-10-10T01:55:30.430Z,100241.59
2023-10-10T01:58:02.456Z,100256.38
2023-10-10T02:00:35.572Z,100244.06
2023-10-10T02:03:05.487Z,100253.38
2023-10-10T02:05:36.916Z,100245.97
2023-10-10T02:08:11.362Z,100250.34
2023-10-10T02:10:47.343Z,100261.37
2023-10-10T02:13:16.091Z,100257.06
2023-10-10T02:15:44.351Z,100244.13
2023-10-10T02:18:24.953Z,100257.97
2023-10-10T02:20:54.115Z,100260.31
2023-10-10T02:23:26.421Z,100255.28
2023-10-10T02:25:54.827Z,100258.47
2023-10-10T02:28:43.315Z,100255.03
2023-10-10T02:31:14.108Z,100260.22
2023-10-10T02:34:04.489Z,100274.59
2023-10-10T02:36:32.922Z,100269.53
2023-10-10T02:39:22.717Z,100258.09
2023-10-10T02:41:59.408Z,100260.25
2023-10-10T02:44:47.536Z,100266.72
2023-10-10T02:47:32.262Z,100267.34
2023-10-10T02:50:15.159Z,100275.56
2023-10-10T02:52:49.418Z,100289.13
2023-10-10T02:55:24.012Z,100296.34
2023-10-10T02:57:55.096Z,100299.97
2023-10-10T03:00:23.880Z,100296.44
2023-10-10T03:02:55.649Z,100297.31
2023-10-10T03:05:41.149Z,100293.81
2023-10-10T03:08:35.728Z,100291.25
2023-10-10T03:11:16.144Z,100286.88
2023-10-10T03:14:02.255Z,100297.41
2023-10-10T03:16:42.868Z,100303.06
2023-10-10T03:19:11.771Z,100296.66
2023-10-10T03:21:50.205Z,100296.34
2023-10-10T03:24:22.155Z,100291.09
2023-10-10T03:26:51.187Z,100296.69
2023-10-10T03:29:29.308Z,100302.13
2023-10-10T03:32:16.956Z,100302.88
2023-10-10T03:35:05.607Z,100300.59
2023-10-10T03:37:55.061Z,100295.44
2023-10-10T03:40:43.400Z,100286.72
2023-10-10T03:43:30.715Z,100294.22
2023-10-10T03:46:17.560Z,100300.59
2023-10-10T03:49:05.184Z,100306.94
2023-10-10T03:51:52.277Z,100299.31
2023-10-10T03:54:39.486Z,100304.03
2023-10-10T03:57:26.554Z,100307.97
2023-10-10T04:00:13.680Z,100312.75
2023-10-10T04:03:01.159Z,100308.66
2023-10-10T04:05:47.923Z,100308.31
2023-10-10T04:08:35.485Z,100308.59
2023-10-10T04:11:22.768Z,100309.16
2023-10-10T04:14:11.639Z,100314.91
2023-10-10T04:16:58.493Z,100314.56
2023-10-10T04:19:45.618Z,100317.81
2023-10-10T04:22:32.899Z,100318.13
2023-10-10T04:25:19.954Z,100313.06
2023-10-10T04:28:06.705Z,100318.09
2023-10-10T04:30:54.369Z,100322.72
2023-10-10T04:33:41.163Z,100322.03
2023-10-10T04:36:28.887Z,100319.56
2023-10-10T04:39:15.574Z,100324.94
2023-10-10T04:42:02.787Z,100332.56
2023-10-10T04:44:49.503Z,100324.75
2023-10-10T04:47:36.643Z,100312.88
2023-10-10T04:50:24.294Z,100322.97
2023-10-10T04:53:11.655Z,100316.13
2023-10-10T04:55:58.463Z,100318.34
2023-10-10T04:58:45.886Z,100323.69
2023-10-10T05:01:32.599Z,100323.56
2023-10-10T05:04:19.921Z,100335.66
2023-10-10T05:07:07.060Z,100334.22
2023-10-10T05:09:54.454Z,100346.38
2023-10-10T05:12:41.034Z,100345.75
2023-10-10T05:15:28.624Z,100349.91
2023-10-10T05:18:15.399Z,100349.56
2023-10-10T05:21:02.454Z,100354.94
2023-10-10T05:23:36.007Z,100357.44
2023-10-10T05:26:15.238Z,100357.97
2023-10-10T05:28:46.476Z,100358.94
2023-10-10T05:31:19.524Z,100364.31
2023-10-10T05:33:48.734Z,100364.81
2023-10-10T05:36:20.178Z,100366.37
2023-10-10T05:38:51.899Z,100369.53
2023-10-10T05:41:21.054Z,100383.94
2023-10-10T05:43:52.716Z,100376.59
2023-10-10T05:46:22.394Z,100389.09
2023-10-10T05:48:53.381Z,100385.66
2023-10-10T05:51:21.786Z,100384.44
2023-10-10T05:53:49.852Z,100382.56
2023-10-10T05:56:19.246Z,100392.03
2023-10-10T05:58:48.494Z,100384.72
2023-10-10T06:01:18.475Z,100385.56
2023-10-10T06:03:47.796Z,100383.63
2023-10-10T06:06:19.396Z,100383.94
2023-10-10T06:08:48.129Z,100392.69
2023-10-10T06:11:16.719Z,100407.75
2023-10-10T06:13:45.652Z,100418.84
2023-10-10T06:16:16.583Z,100416.50
2023-10-10T06:18:51.404Z,100432.41
2023-10-10T06:21:19.997Z,100419.94
2023-10-10T06:23:50.870Z,100421.19
2023-10-10T06:26:23.200Z,100429.53
2023-10-10T06:28:55.126Z,100437.25
2023-10-10T06:31:35.593Z,100438.62
2023-10-10T06:34:21.046Z,100437.25
2023-10-10T06:36:54.029Z,100440.16
2023-10-10T06:39:22.663Z,100438.62
2023-10-10T06:41:52.109Z,100437.88
2023-10-10T06:44:34.014Z,100447.72
2023-10-10T06:47:10.640Z,100441.84
2023-10-10T06:49:45.516Z,100446.53
2023-10-10T06:52:24.847Z,100452.25
2023-10-10T06:54:56.095Z,100448.44
2023-10-10T06:57:42.616Z,100451.91
2023-10-10T07:00:17.856Z,100455.22
2023-10-10T07:02:49.595Z,100453.38
2023-10-10T07:05:20.786Z,100457.47
2023-10-10T07:07:57.799Z,100454.28
2023-10-10T07:10:37.080Z,100461.28
2023-10-10T07:13:11.636Z,100462.22
2023-10-10T07:15:41.775Z,100460.22
2023-10-10T07:18:31.007Z,100465.28
2023-10-10T07:21:08.153Z,100464.37
2023-10-10T07:23:38.960Z,100472.28
2023-10-10T07:26:19.935Z,100464.06
2023-10-10T07:28:50.351Z,100461.31
2023-10-10T07:31:19.917Z,100453.13
2023-10-10T07:33:57.170Z,100454.06
2023-10-10T07:36:27.568Z,100456.84
2023-10-10T07:39:16.948Z,100462.59
2023-10-10T07:41:48.853Z,100460.37
2023-10-10T07:44:24.143Z,100456.44
2023-10-10T07:47:11.147Z,100457.72
2023-10-10T07:49:51.412Z,100464.59
2023-10-10T07:52:21.569Z,100461.63
2023-10-10T07:55:05.122Z,100452.84
2023-10-10T07:57:53.793Z,100446.81
2023-10-10T08:00:36.343Z,100456.66
2023-10-10T08:03:06.933Z,100445.16
2023-10-10T08:05:35.275Z,100453.72
2023-10-10T08:08:06.710Z,100457.69
2023-10-10T08:10:37.924Z,100460.06
2023-10-10T08:13:12.886Z,100454.34
2023-10-10T08:15:57.494Z,100465.88
2023-10-10T08:18:43.762Z,100468.06
2023-10-10T08:21:14.235Z,100470.28
2023-10-10T08:23:44.577Z,100475.44
2023-10-10T08:26:19.881Z,100477.66
2023-10-10T08:28:49.083Z,100471.06
2023-10-10T08:31:17.989Z,100476.41
2023-10-10T08:33:47.531Z,100482.19
2023-10-10T08:36:26.228Z,100484.37
2023-10-10T08:38:57.410Z,100492.88
2023-10-10T08:41:31.411Z,100483.31
2023-10-10T08:44:02.744Z,100499.66
2023-10-10T08:46:32.826Z,100501.78
2023-10-10T08:49:05.967Z,100487.94
2023-10-10T08:51:35.538Z,100498.94
2023-10-10T08:54:12.493Z,100492.25
2023-10-10T08:57:01.000Z,100499.34
2023-10-10T08:59:33.966Z,100500.22
2023-10-10T09:02:18.724Z,100507.34
2023-10-10T09:04:47.992Z,100505.97
2023-10-10T09:07:29.010Z,100518.91
2023-10-10T09:10:09.619Z,100517.75
2023-10-10T09:12:54.514Z,100519.69
2023-10-10T09:15:27.139Z,100525.44
2023-10-10T09:18:15.884Z,100514.50
2023-10-10T09:20:48.310Z,100515.31
2023-10-10T09:23:28.065Z,100517.25
2023-10-10T09:26:13.426Z,100519.41
2023-10-10T09:28:59.806Z,100528.19
2023-10-10T09:31:32.472Z,100530.00
2023-10-10T09:34:06.976Z,100530.94
2023-10-10T09:36:40.893Z,100524.75
2023-10-10T09:39:16.046Z,100538.47
2023-10-10T09:42:08.227Z,100540.41
2023-10-10T09:45:00.589Z,100535.31
2023-10-10T09:47:43.224Z,100533.97
2023-10-10T09:50:24.257Z,100544.97
2023-10-10T09:52:53.547Z,100543.06
2023-10-10T09:55:26.137Z,100540.56
2023-10-10T09:58:02.833Z,100537.12
2023-10-10T10:00:41.571Z,100543.03
2023-10-10T10:03:28.783Z,100536.19
2023-10-10T10:06:24.745Z,100533.19
2023-10-10T10:09:10.097Z,100537.31
2023-10-10T10:12:05.414Z,100532.94
2023-10-10T10:14:36.928Z,100528.94
2023-10-10T10:17:45.759Z,100526.78
2023-10-10T10:20:46.139Z,100527.34
2023-10-10T10:23:34.668Z,100532.78
2023-10-10T10:26:06.155Z,100527.19
2023-10-10T10:28:38.204Z,100530.88
2023-10-10T10:31:17.922Z,100545.37
2023-10-10T10:34:06.973Z,100539.75
2023-10-10T10:36:46.747Z,100537.16
2023-10-10T10:39:37.311Z,100540.88
2023-10-10T10:42:13.840Z,100538.00
2023-10-10T10:44:46.307Z,100533.06
2023-10-10T10:47:37.223Z,100524.94
2023-10-10T10:50:18.932Z,100526.34
2023-10-10T10:52:59.548Z,100519.47
2023-10-10T10:55:30.625Z,100508.37
2023-10-10T10:58:20.403Z,100514.28
2023-10-10T11:01:00.516Z,100509.59
2023-10-10T11:03:39.727Z,100529.09
2023-10-10T11:06:09.923Z,100513.72
2023-10-10T11:08:57.200Z,100516.75
2023-10-10T11:11:33.976Z,100520.88
2023-10-10T11:14:16.867Z,100510.84
2023-10-10T11:16:57.720Z,100510.97
2023-10-10T11:19:30.697Z,100502.88
2023-10-10T11:22:07.248Z,100509.19
2023-10-10T11:24:38.724Z,100493.97
2023-10-10T11:27:07.868Z,100497.28
2023-10-10T11:29:46.224Z,100499.88
2023-10-10T11:32:17.274Z,100493.41
2023-10-10T11:34:51.168Z,100507.56
2023-10-10T11:37:24.763Z,100501.66
2023-10-10T11:40:33.035Z,100492.31
2023-10-10T11:43:06.073Z,100491.47
2023-10-10T11:45:41.355Z,100497.25
2023-10-10T11:48:17.419Z,100493.41
2023-10-10T11:50:47.320Z,100501.78
2023-10-10T11:53:20.837Z,100495.03
2023-10-10T11:55:49.752Z,100487.47
2023-10-10T11:58:18.248Z,100475.25
2023-10-10T12:01:00.952Z,100484.19
2023-10-10T12:03:43.881Z,100480.31
2023-10-10T12:06:28.224Z,100481.81
2023-10-10T12:08:57.007Z,100471.37
2023-10-10T12:11:26.705Z,100464.75
2023-10-10T12:13:55.649Z,100457.56
2023-10-10T12:16:28.850Z,100452.28
2023-10-10T12:18:57.110Z,100447.63
2023-10-10T12:21:26.995Z,100443.16
2023-10-10T12:24:01.227Z,100442.12
2023-10-10T12:26:31.844Z,100439.06
2023-10-10T12:29:00.307Z,100449.09
2023-10-10T12:31:28.797Z,100446.44
2023-10-10T12:33:57.607Z,100441.69
2023-10-10T12:36:30.822Z,100446.06
2023-10-10T12:39:01.145Z,100456.59
2023-10-10T12:41:36.619Z,100452.78
2023-10-10T12:44:07.749Z,100457.34
2023-10-10T12:46:36.273Z,100459.38
2023-10-10T12:49:04.764Z,100458.78
2023-10-10T12:51:33.285Z,100455.56
2023-10-10T12:54:02.491Z,100459.22
2023-10-10T12:56:31.924Z,100458.09
2023-10-10T12:59:23.621Z,100462.91
2023-10-10T13:01:57.324Z,100450.69
2023-10-10T13:04:34.922Z,100458.00
2023-10-10T13:07:04.671Z,100459.12
2023-10-10T13:09:34.187Z,100456.00
2023-10-10T13:12:05.670Z,100447.47
2023-10-10T13:14:35.147Z,100453.69
2023-10-10T13:17:22.721Z,100458.31
2023-10-10T13:19:53.490Z,100450.22
2023-10-10T13:22:22.098Z,100445.16
2023-10-10T13:24:51.400Z,100444.50
2023-10-10T13:27:22.116Z,100439.97
2023-10-10T13:29:50.586Z,100432.91
2023-10-10T13:32:21.733Z,100440.94
2023-10-10T13:34:51.889Z,100430.78
2023-10-10T13:37:20.416Z,100432.06
2023-10-10T13:39:49.918Z,100433.87
2023-10-10T13:42:21.991Z,100434.09
2023-10-10T13:44:50.322Z,100429.50
2023-10-10T13:47:19.191Z,100427.09
2023-10-10T13:50:08.294Z,100423.50
2023-10-10T13:52:39.555Z,100422.38
2023-10-10T13:55:11.778Z,100435.09
2023-10-10T13:57:40.849Z,100433.97
2023-10-10T14:00:21.307Z,100423.19
2023-10-10T14:02:50.150Z,100428.75
2023-10-10T14:05:20.765Z,100424.53
2023-10-10T14:07:48.941Z,100430.09
2023-10-10T14:10:22.166Z,100427.97
2023-10-10T14:12:51.942Z,100427.31
2023-10-10T14:15:22.759Z,100432.34
2023-10-10T14:17:51.014Z,100427.31
2023-10-10T14:20:22.478Z,100428.44
2023-10-10T14:22:56.030Z,100434.59
2023-10-10T14:25:24.718Z,100440.50
2023-10-10T14:27:53.614Z,100433.63
2023-10-10T14:30:25.027Z,100439.06
2023-10-10T14:32:56.740Z,100442.16
2023-10-10T14:35:25.473Z,100441.31
2023-10-10T14:38:01.690Z,100431.81
2023-10-10T14:40:35.011Z,100433.00
2023-10-10T14:43:07.592Z,100429.87
2023-10-10T14:45:35.876Z,100432.34
2023-10-10T14:48:08.495Z,100435.47
2023-10-10T14:50:41.212Z,100427.47
2023-10-10T14:53:12.460Z,100439.44
2023-10-10T14:55:45.779Z,100428.28
2023-10-10T14:58:14.610Z,100425.81
2023-10-10T15:00:43.993Z,100426.13
2023-10-10T15:03:17.251Z,100429.34
2023-10-10T15:05:53.330Z,100436.53
2023-10-10T15:08:23.005Z,100433.56
2023-10-10T15:10:52.662Z,100440.22
2023-10-10T15:13:20.990Z,100376.88
2023-10-10T15:15:49.557Z,100445.16
2023-10-10T15:18:19.194Z,100448.56
2023-10-10T15:20:50.063Z,100450.69
2023-10-10T15:23:24.019Z,100456.22
2023-10-10T15:25:56.290Z,100454.66
2023-10-10T15:28:26.372Z,100453.63
2023-10-10T15:30:55.069Z,100458.31
2023-10-10T15:33:26.148Z,100460.94
2023-10-10T15:35:54.966Z,100454.06
2023-10-10T15:38:24.558Z,100455.09
2023-10-10T15:40:53.596Z,100457.94
2023-10-10T15:43:32.645Z,100464.13
2023-10-10T15:46:01.772Z,100458.81
2023-10-10T15:48:30.612Z,100454.37
2023-10-10T15:50:59.286Z,100459.06
2023-10-10T15:53:27.533Z,100458.00
2023-10-10T15:56:12.496Z,100462.44
2023-10-10T15:58:51.626Z,100473.75
2023-10-10T16:01:29.122Z,100464.16
2023-10-10T16:04:15.859Z,100475.75
2023-10-10T16:06:48.459Z,100466.81
2023-10-10T16:09:33.002Z,100473.53
2023-10-10T16:12:01.641Z,100474.66
2023-10-10T16:14:30.111Z,100472.59
2023-10-10T16:16:58.313Z,100481.00
2023-10-10T16:19:31.007Z,100477.16
2023-10-10T16:22:00.824Z,100477.56
2023-10-10T16:24:29.523Z,100472.62
2023-10-10T16:27:02.583Z,100488.31
2023-10-10T16:29:37.047Z,100492.44
2023-10-10T16:32:14.672Z,100490.09
2023-10-10T16:34:44.768Z,100497.78
2023-10-10T16:37:16.793Z,100502.31
2023-10-10T16:39:46.479Z,100499.56
2023-10-10T16:42:20.012Z,100499.28
2023-10-10T16:44:49.050Z,100502.75
2023-10-10T16:47:18.906Z,100505.50
2023-10-10T16:49:51.020Z,100512.34
2023-10-10T16:52:27.229Z,100514.56
2023-10-10T16:54:56.572Z,100510.97
2023-10-10T16:57:26.102Z,100504.09
2023-10-10T16:59:57.032Z,100514.41
2023-10-10T17:02:30.088Z,100518.66
2023-10-10T17:05:01.758Z,100524.03
2023-10-10T17:07:31.419Z,100514.69
2023-10-10T17:10:06.218Z,100519.91
2023-10-10T17:12:35.489Z,100522.34
2023-10-10T17:15:05.728Z,100521.69
2023-10-10T17:17:37.026Z,100523.75
2023-10-10T17:20:06.729Z,100522.34
2023-10-10T17:22:38.298Z,100530.47
2023-10-10T17:25:09.718Z,100529.38
2023-10-10T17:27:38.840Z,100528.00
2023-10-10T17:30:10.282Z,100531.56
2023-10-10T17:32:43.570Z,100532.56
2023-10-10T17:35:12.554Z,100529.53
2023-10-10T17:37:43.148Z,100535.44
2023-10-10T17:40:14.294Z,100540.09
2023-10-10T17:42:52.541Z,100532.81
2023-10-10T17:45:20.983Z,100537.91
2023-10-10T17:47:49.871Z,100534.59
2023-10-10T17:50:18.522Z,100542.69
2023-10-10T17:52:48.126Z,100548.47
2023-10-10T17:55:17.277Z,100549.72
2023-10-10T17:57:45.516Z,100549.16
2023-10-10T18:00:17.463Z,100556.41
2023-10-10T18:02:47.651Z,100557.12
2023-10-10T18:05:16.114Z,100564.38
2023-10-10T18:07:47.808Z,100560.00
2023-10-10T18:10:23.838Z,100557.25
2023-10-10T18:12:52.056Z,100564.81
2023-10-10T18:15:22.664Z,100561.66
2023-10-10T18:17:55.726Z,100569.16
2023-10-10T18:20:24.807Z,100576.63
2023-10-10T18:22:55.358Z,100574.16
2023-10-10T18:25:27.284Z,100569.88
2023-10-10T18:27:59.063Z,100576.91
2023-10-10T18:30:28.958Z,100579.06
2023-10-10T18:32:58.435Z,100581.69
2023-10-10T18:35:29.805Z,100592.69
2023-10-10T18:38:01.537Z,100582.25
2023-10-10T18:40:31.478Z,100580.47
2023-10-10T18:43:08.496Z,100582.63
2023-10-10T18:45:40.280Z,100578.94
2023-10-10T18:48:12.146Z,100578.94
2023-10-10T18:50:40.739Z,100575.38
2023-10-10T18:53:09.577Z,100585.38
2023-10-10T18:55:37.793Z,100585.09
2023-10-10T18:58:08.839Z,100589.66
2023-10-10T19:00:37.952Z,100587.19
2023-10-10T19:03:08.383Z,100599.81
2023-10-10T19:05:40.797Z,100587.88
2023-10-10T19:08:09.912Z,100605.75
2023-10-10T19:10:39.014Z,100609.44
2023-10-10T19:13:10.515Z,100604.72
2023-10-10T19:15:39.237Z,100611.34
2023-10-10T19:18:08.243Z,100608.50
2023-10-10T19:20:38.369Z,100605.31
2023-10-10T19:23:10.060Z,100609.56
2023-10-10T19:25:48.177Z,100606.13
2023-10-10T19:28:19.686Z,100610.09
2023-10-10T19:30:48.000Z,100600.22
2023-10-10T19:33:16.875Z,100613.66
2023-10-10T19:35:46.216Z,100608.16
2023-10-10T19:38:14.759Z,100609.94
2023-10-10T19:40:46.372Z,100617.25
2023-10-10T19:43:14.788Z,100608.19
2023-10-10T19:45:43.354Z,100606.66
2023-10-10T19:48:17.226Z,100606.22
2023-10-10T19:50:48.852Z,100614.59
2023-10-10T19:53:17.445Z,100616.66
2023-10-10T19:55:50.399Z,100621.84
2023-10-10T19:58:22.181Z,100624.88
2023-10-10T20:00:51.473Z,100620.16
2023-10-10T20:03:23.384Z,100618.81
2023-10-10T20:05:53.932Z,100615.66
2023-10-10T20:08:22.817Z,100619.09
2023-10-10T20:10:51.245Z,100623.50
2023-10-10T20:13:21.751Z,100614.00
2023-10-10T20:15:54.163Z,100615.53
2023-10-10T20:18:22.656Z,100609.47
2023-10-10T20:20:53.092Z,100601.47
2023-10-10T20:23:24.569Z,100605.81
2023-10-10T20:25:55.627Z,100623.31
2023-10-10T20:28:26.892Z,100623.47
2023-10-10T20:30:55.437Z,100630.09
2023-10-10T20:33:23.655Z,100627.63
2023-10-10T20:35:52.227Z,100638.72
2023-10-10T20:38:21.259Z,100636.56
2023-10-10T20:40:49.534Z,100637.72
2023-10-10T20:43:17.927Z,100632.00
2023-10-10T20:45:46.401Z,100646.13
2023-10-10T20:48:22.974Z,100641.47
2023-10-10T20:50:51.878Z,100632.12
2023-10-10T20:53:20.946Z,100629.50
2023-10-10T20:55:51.218Z,100626.09
2023-10-10T20:58:19.979Z,100619.13
2023-10-10T21:00:48.442Z,100617.59
2023-10-10T21:03:17.427Z,100626.31
2023-10-10T21:05:46.178Z,100616.75
2023-10-10T21:08:14.543Z,100621.69
2023-10-10T21:10:42.975Z,100612.56
2023-10-10T21:13:11.597Z,100623.22
2023-10-10T21:15:41.971Z,100615.56
2023-10-10T21:18:10.481Z,100606.81
2023-10-10T21:20:45.207Z,100605.75
2023-10-10T21:23:22.566Z,100615.97
2023-10-10T21:25:51.752Z,100625.59
2023-10-10T21:28:20.209Z,100614.69
2023-10-10T21:30:48.705Z,100610.09
2023-10-10T21:33:17.635Z,100613.75
2023-10-10T21:35:45.944Z,100608.16
2023-10-10T21:38:14.421Z,100612.09
2023-10-10T21:40:42.860Z,100613.53
2023-10-10T21:43:11.270Z,100619.78
2023-10-10T21:45:40.561Z,100609.25
2023-10-10T21:48:11.218Z,100601.16
2023-10-10T21:50:43.062Z,100600.75
2023-10-10T21:53:12.844Z,100603.69
2023-10-10T21:55:41.974Z,100605.25
2023-10-10T21:58:10.208Z,100613.53
2023-10-10T22:00:38.959Z,100620.75
2023-10-10T22:03:08.446Z,100622.59
2023-10-10T22:05:38.539Z,100629.00
2023-10-10T22:08:11.669Z,100634.09
2023-10-10T22:10:43.353Z,100635.84
2023-10-10T22:13:12.509Z,100639.31
2023-10-10T22:15:40.882Z,100642.31
2023-10-10T22:18:09.257Z,100644.59
2023-10-10T22:20:37.861Z,100632.50
2023-10-10T22:23:06.438Z,100640.50
2023-10-10T22:25:38.330Z,100639.25
2023-10-10T22:28:09.904Z,100627.88
2023-10-10T22:30:40.972Z,100639.25
2023-10-10T22:33:12.841Z,100637.47
2023-10-10T22:35:41.204Z,100636.56
2023-10-10T22:38:14.287Z,100635.31
2023-10-10T22:40:42.726Z,100638.84
2023-10-10T22:43:16.586Z,100640.06
2023-10-10T22:45:45.411Z,100644.06
2023-10-10T22:48:16.008Z,100645.84
2023-10-10T22:50:44.715Z,100632.31
2023-10-10T22:53:15.383Z,100638.53
2023-10-10T22:55:45.980Z,100649.72
2023-10-10T22:58:16.613Z,100632.44
2023-10-10T23:00:49.073Z,100625.66
2023-10-10T23:03:20.904Z,100637.84
2023-10-10T23:05:50.474Z,100630.28
2023-10-10T23:08:19.347Z,100629.47
2023-10-10T23:10:49.483Z,100630.69
2023-10-10T23:13:19.152Z,100632.56
2023-10-10T23:15:50.750Z,100631.09
2023-10-10T23:18:19.635Z,100634.50
2023-10-10T23:20:47.980Z,100628.31
2023-10-10T23:23:17.336Z,100632.75
2023-10-10T23:25:48.985Z,100633.31
2023-10-10T23:28:17.085Z,100630.97
2023-10-10T23:30:45.532Z,100628.13
2023-10-10T23:33:17.558Z,100641.25
2023-10-10T23:35:49.991Z,100635.38
2023-10-10T23:38:21.518Z,100628.62
2023-10-10T23:40:50.253Z,100637.25
2023-10-10T23:43:22.513Z,100632.75
2023-10-10T23:45:58.178Z,100635.56
2023-10-10T23:48:33.144Z,100640.28
2023-10-10T23:51:08.001Z,100634.84
2023-10-10T23:53:40.205Z,100630.97
2023-10-10T23:56:09.393Z,100629.63
2023-10-10T23:58:37.836Z,100626.81
